Time;durP1;ratioP1;P1;durP2;ratioP2;P2;SDS_P1;SDS_P2;PMS_P1;PMS_P2;Temp;Humidity;BMP_temperature;BMP_pressure;BME280_temperature;BME280_humidity;BME280_pressure;Samples;Min_cycle;Max_cycle;Signal;HPM_P1;HPM_P2
2022/05/08 00:00:11;;;;;;;7.70;2.30;;;;;;;;;;6018614;23;20018;-85
2022/05/08 00:02:40;;;;;;;8.25;2.53;;;;;;;;;;6044023;23;20018;-85
2022/05/08 00:05:06;;;;;;;9.80;3.30;;;;;;;;;;6019609;23;20038;-85
2022/05/08 00:07:32;;;;;;;8.32;2.53;;;;;;;;;;6019147;23;20347;-85
2022/05/08 00:09:58;;;;;;;6.85;2.60;;;;;;;;;;6045790;23;20012;-84
2022/05/08 00:12:24;;;;;;;10.25;2.63;;;;;;;;;;6019249;23;20459;-84
2022/05/08 00:14:50;;;;;;;7.65;2.35;;;;;;;;;;6044454;23;20083;-84
2022/05/08 00:17:15;;;;;;;8.68;2.70;;;;;;;;;;6019834;23;20008;-84
2022/05/08 00:19:43;;;;;;;9.05;3.55;;;;;;;;;;6044402;23;20363;-84
2022/05/08 00:22:09;;;;;;;7.85;2.60;;;;;;;;;;6019157;23;20007;-84
2022/05/08 00:24:35;;;;;;;7.57;2.65;;;;;;;;;;6018828;23;20014;-84
2022/05/08 00:27:01;;;;;;;7.85;2.42;;;;;;;;;;6019542;23;20003;-84
2022/05/08 00:29:27;;;;;;;10.52;2.70;;;;;;;;;;6021391;23;20305;-84
2022/05/08 00:31:53;;;;;;;8.07;2.80;;;;;;;;;;6019879;23;20099;-84
2022/05/08 00:34:19;;;;;;;7.15;2.78;;;;;;;;;;6018042;23;20027;-84
2022/05/08 00:36:45;;;;;;;6.57;2.13;;;;;;;;;;6017947;23;20044;-84
2022/05/08 00:39:11;;;;;;;9.48;3.10;;;;;;;;;;6017839;23;20003;-84
2022/05/08 00:41:37;;;;;;;6.07;1.92;;;;;;;;;;6043022;23;20007;-84
2022/05/08 00:44:03;;;;;;;6.97;2.65;;;;;;;;;;6017604;23;20110;-84
2022/05/08 00:46:29;;;;;;;6.70;2.03;;;;;;;;;;6018060;23;20005;-84
2022/05/08 00:48:56;;;;;;;6.32;2.25;;;;;;;;;;6018058;23;20031;-84
2022/05/08 00:51:22;;;;;;;6.47;2.40;;;;;;;;;;6017068;23;20066;-84
2022/05/08 00:53:52;;;;;;;7.57;2.65;;;;;;;;;;6017646;23;20011;-84
2022/05/08 00:56:19;;;;;;;6.75;2.35;;;;;;;;;;6017941;23;20039;-84
2022/05/08 00:58:47;;;;;;;6.78;2.55;;;;;;;;;;6017866;23;20378;-84
2022/05/08 01:01:13;;;;;;;8.18;2.25;;;;;;;;;;6042689;23;20090;-84
2022/05/08 01:03:40;;;;;;;8.07;2.95;;;;;;;;;;6017863;23;20037;-85
2022/05/08 01:06:07;;;;;;;6.72;2.05;;;;;;;;;;6043607;23;20007;-84
2022/05/08 01:08:35;;;;;;;6.03;1.90;;;;;;;;;;6017546;23;20014;-84
2022/05/08 01:11:02;;;;;;;6.32;2.13;;;;;;;;;;6017247;23;20457;-84
2022/05/08 01:13:28;;;;;;;5.00;1.83;;;;;;;;;;6017043;23;20011;-83
2022/05/08 01:15:55;;;;;;;4.90;1.88;;;;;;;;;;6018456;23;20059;-84
2022/05/08 01:18:21;;;;;;;6.57;2.33;;;;;;;;;;6018452;23;20030;-84
2022/05/08 01:20:47;;;;;;;5.93;2.10;;;;;;;;;;6018479;23;20003;-84
2022/05/08 01:23:15;;;;;;;9.00;1.98;;;;;;;;;;6019149;23;20035;-84
2022/05/08 01:25:49;;;;;;;4.82;1.60;;;;;;;;;;6019228;23;20007;-83
2022/05/08 01:28:16;;;;;;;6.35;2.15;;;;;;;;;;6019463;23;20064;-84
2022/05/08 01:30:43;;;;;;;7.20;1.90;;;;;;;;;;6017691;23;20388;-84
2022/05/08 01:33:09;;;;;;;5.43;2.00;;;;;;;;;;6019522;23;20014;-84
2022/05/08 01:35:35;;;;;;;7.00;2.42;;;;;;;;;;6044762;23;20014;-84
2022/05/08 01:38:01;;;;;;;8.18;2.25;;;;;;;;;;6019036;23;20007;-84
2022/05/08 01:40:27;;;;;;;6.60;1.92;;;;;;;;;;6019097;23;20065;-84
2022/05/08 06:46:26;;;;;;;7.95;1.40;;;;;;;;;;5980058;23;20035;-77
2022/05/08 06:48:51;;;;;;;6.72;1.42;;;;;;;;;;6015728;23;20007;-77
2022/05/08 06:51:17;;;;;;;6.28;1.67;;;;;;;;;;6015097;23;20503;-77
2022/05/08 06:53:43;;;;;;;5.63;1.30;;;;;;;;;;6015352;23;20008;-78
2022/05/08 06:56:13;;;;;;;6.30;2.08;;;;;;;;;;6040465;23;20346;-77
2022/05/08 07:01:34;;;;;;;6.95;1.65;;;;;;;;;;6015614;23;20615;-78
2022/05/08 07:01:34;;;;;;;4.90;1.67;;;;;;;;;;6039814;23;20451;-77
2022/05/08 07:04:00;;;;;;;6.40;1.38;;;;;;;;;;6014871;23;20399;-80
2022/05/08 07:06:26;;;;;;;8.15;1.30;;;;;;;;;;6015204;23;20010;-78
2022/05/08 07:08:52;;;;;;;9.90;1.88;;;;;;;;;;6042305;23;20447;-78
2022/05/08 07:11:18;;;;;;;7.78;2.03;;;;;;;;;;6018917;23;20007;-78
2022/05/08 07:13:44;;;;;;;8.57;1.38;;;;;;;;;;6016961;23;20014;-78
2022/05/08 07:16:10;;;;;;;7.75;1.80;;;;;;;;;;6016423;23;20004;-78
2022/05/08 07:18:36;;;;;;;8.68;1.42;;;;;;;;;;6042186;23;20007;-78
2022/05/08 07:21:02;;;;;;;10.43;1.60;;;;;;;;;;6017292;23;20347;-78
2022/05/08 07:23:28;;;;;;;7.82;2.13;;;;;;;;;;6017263;23;20015;-78
2022/05/08 07:25:54;;;;;;;7.47;1.70;;;;;;;;;;6017852;23;20010;-78
2022/05/08 07:28:20;;;;;;;7.03;2.13;;;;;;;;;;6042281;23;20059;-78
2022/05/08 07:30:46;;;;;;;7.80;1.73;;;;;;;;;;6041805;23;20483;-78
2022/05/08 07:33:16;;;;;;;6.95;2.00;;;;;;;;;;6017671;23;20003;-78
2022/05/08 07:38:26;;;;;;;5.85;1.52;;;;;;;;;;6042055;23;20018;-78
2022/05/08 07:40:52;;;;;;;8.88;1.55;;;;;;;;;;6041700;23;20003;-78
2022/05/08 07:43:18;;;;;;;6.75;1.95;;;;;;;;;;6017476;23;20494;-80
2022/05/08 07:45:44;;;;;;;7.57;1.65;;;;;;;;;;6043322;23;20004;-80
2022/05/08 07:48:10;;;;;;;6.68;1.70;;;;;;;;;;6025608;23;20022;-80
2022/05/08 07:50:36;;;;;;;6.53;2.13;;;;;;;;;;6025638;23;20082;-81
2022/05/08 07:53:02;;;;;;;6.22;1.75;;;;;;;;;;6048134;23;20007;-79
2022/05/08 07:55:28;;;;;;;6.63;1.95;;;;;;;;;;6019669;23;20004;-80
2022/05/08 07:57:54;;;;;;;7.78;2.63;;;;;;;;;;6019109;23;20054;-79
2022/05/08 08:00:20;;;;;;;5.22;1.38;;;;;;;;;;6018911;23;20336;-80
2022/05/08 08:02:46;;;;;;;5.45;1.60;;;;;;;;;;6045277;23;20003;-81
2022/05/08 08:05:12;;;;;;;5.70;1.40;;;;;;;;;;6020161;23;20003;-79
2022/05/08 08:07:39;;;;;;;6.50;1.75;;;;;;;;;;6020867;23;20331;-81
2022/05/08 08:10:05;;;;;;;7.65;1.85;;;;;;;;;;6019726;23;20014;-80
2022/05/08 08:12:31;;;;;;;5.18;1.48;;;;;;;;;;6019958;23;20008;-81
2022/05/08 08:14:59;;;;;;;8.45;1.95;;;;;;;;;;6044807;23;20035;-82
2022/05/08 08:17:25;;;;;;;5.93;1.67;;;;;;;;;;6020210;23;20007;-79
2022/05/08 08:19:51;;;;;;;5.65;1.70;;;;;;;;;;6018830;23;20010;-80
2022/05/08 08:22:17;;;;;;;6.57;1.77;;;;;;;;;;6018099;23;20350;-79
2022/05/08 08:24:43;;;;;;;7.57;1.83;;;;;;;;;;6044503;23;20003;-80
2022/05/08 08:27:09;;;;;;;5.20;1.65;;;;;;;;;;6018795;23;20011;-80
2022/05/08 08:29:35;;;;;;;4.35;1.30;;;;;;;;;;6021401;23;20059;-80
2022/05/08 08:32:01;;;;;;;8.60;2.08;;;;;;;;;;6031760;23;20038;-80
2022/05/08 08:34:27;;;;;;;5.78;1.58;;;;;;;;;;6009623;23;20066;-80
2022/05/08 08:36:53;;;;;;;7.43;1.38;;;;;;;;;;6018811;23;20014;-80
2022/05/08 08:39:19;;;;;;;6.38;1.65;;;;;;;;;;6018950;23;20018;-80
2022/05/08 08:41:54;;;;;;;7.10;2.55;;;;;;;;;;6018663;23;20168;-80
2022/05/08 08:49:52;;;;;;;5.05;1.50;;;;;;;;;;6044419;23;20018;-80
2022/05/08 08:52:19;;;;;;;4.82;1.58;;;;;;;;;;6045462;23;20014;-80
2022/05/08 08:54:45;;;;;;;7.38;1.95;;;;;;;;;;6018169;23;20000;-80
2022/05/08 08:57:11;;;;;;;5.75;1.60;;;;;;;;;;6043012;23;20051;-80
2022/05/08 08:59:37;;;;;;;4.57;1.20;;;;;;;;;;6042446;23;20451;-79
2022/05/08 09:02:03;;;;;;;4.10;1.60;;;;;;;;;;6042814;23;20043;-80
2022/05/08 09:04:33;;;;;;;5.40;2.00;;;;;;;;;;6018004;23;20038;-79
2022/05/08 09:06:59;;;;;;;6.13;1.38;;;;;;;;;;6017604;23;20011;-80
2022/05/08 09:09:31;;;;;;;5.47;1.98;;;;;;;;;;6042965;23;20435;-80
2022/05/08 09:11:57;;;;;;;5.95;1.55;;;;;;;;;;6016953;23;20035;-79
2022/05/08 09:14:34;;;;;;;5.82;1.30;;;;;;;;;;6017709;23;20018;-79
2022/05/08 09:17:00;;;;;;;6.10;1.80;;;;;;;;;;6042459;23;20007;-80
2022/05/08 09:19:32;;;;;;;5.47;1.30;;;;;;;;;;6018025;23;20042;-79
2022/05/08 09:22:00;;;;;;;4.15;1.35;;;;;;;;;;6042863;23;20039;-79
2022/05/08 09:24:26;;;;;;;4.00;1.30;;;;;;;;;;6017228;23;20011;-80
2022/05/08 09:27:08;;;;;;;5.68;1.60;;;;;;;;;;6042920;23;20054;-79
2022/05/08 09:29:34;;;;;;;4.75;1.27;;;;;;;;;;6018055;23;19999;-79
2022/05/08 09:32:14;;;;;;;8.10;1.90;;;;;;;;;;6019721;23;20057;-79
2022/05/08 09:41:50;;;;;;;5.20;1.40;;;;;;;;;;5906633;24;20236;-79
2022/05/08 09:44:18;;;;;;;5.10;1.70;;;;;;;;;;5907345;24;20010;-79
2022/05/08 09:46:48;;;;;;;6.45;1.60;;;;;;;;;;5906140;24;20009;-79
2022/05/08 09:49:40;;;;;;;4.85;1.67;;;;;;;;;;5975538;23;20006;-79
2022/05/08 09:52:06;;;;;;;5.63;1.30;;;;;;;;;;6024425;23;20008;-79
2022/05/08 09:54:38;;;;;;;4.28;1.20;;;;;;;;;;6025045;23;20013;-79
2022/05/08 09:57:04;;;;;;;4.10;1.25;;;;;;;;;;6023248;23;20324;-79
2022/05/08 09:59:30;;;;;;;5.43;1.25;;;;;;;;;;6045508;23;20006;-80
2022/05/08 10:01:56;;;;;;;7.10;1.33;;;;;;;;;;6020229;23;20007;-80
2022/05/08 10:04:26;;;;;;;4.75;1.63;;;;;;;;;;6021376;23;20038;-79
2022/05/08 10:06:56;;;;;;;8.13;1.90;;;;;;;;;;6025301;23;20003;-80
2022/05/08 10:14:53;;;;;;;5.40;1.55;;;;;;;;;;6045440;23;20042;-80
2022/05/08 10:17:29;;;;;;;4.43;1.42;;;;;;;;;;6045232;23;20087;-80
2022/05/08 10:19:55;;;;;;;4.53;1.38;;;;;;;;;;6019950;23;20018;-79
2022/05/08 10:22:22;;;;;;;4.18;1.20;;;;;;;;;;6044826;23;20008;-80
2022/05/08 10:24:54;;;;;;;6.32;1.38;;;;;;;;;;6025485;23;20008;-79
2022/05/08 10:27:26;;;;;;;6.20;1.42;;;;;;;;;;6026082;23;20012;-79
2022/05/08 10:29:55;;;;;;;4.90;1.30;;;;;;;;;;6022865;23;20003;-81
2022/05/08 10:32:31;;;;;;;4.95;1.42;;;;;;;;;;6022510;23;20090;-80
2022/05/08 10:35:10;;;;;;;5.05;1.17;;;;;;;;;;6024145;23;20347;-84
2022/05/08 10:37:37;;;;;;;9.75;2.50;;;;;;;;;;6017425;23;20030;-78
2022/05/08 10:40:55;;;;;;;9.98;1.92;;;;;;;;;;6017011;23;20004;-77
2022/05/08 10:43:25;;;;;;;12.07;2.35;;;;;;;;;;5979055;23;20012;-77
2022/05/08 10:45:54;;;;;;;11.73;2.15;;;;;;;;;;6019748;23;20040;-79
2022/05/08 10:48:21;;;;;;;6.10;1.45;;;;;;;;;;6023557;23;20037;-78
2022/05/08 10:50:54;;;;;;;6.97;1.92;;;;;;;;;;6016634;23;20007;-79
2022/05/08 10:53:20;;;;;;;9.30;2.72;;;;;;;;;;6017665;23;20066;-78
2022/05/08 10:55:46;;;;;;;11.02;1.80;;;;;;;;;;6042348;23;20026;-78
2022/05/08 10:58:12;;;;;;;16.70;2.53;;;;;;;;;;6042533;23;20010;-78
2022/05/08 11:00:38;;;;;;;16.13;2.08;;;;;;;;;;6016564;23;20009;-77
2022/05/08 11:03:04;;;;;;;13.95;2.90;;;;;;;;;;6018370;23;20003;-79
2022/05/08 11:05:32;;;;;;;20.58;2.75;;;;;;;;;;6018545;23;20007;-78
2022/05/08 11:07:59;;;;;;;12.07;2.63;;;;;;;;;;6015471;23;20010;-78
2022/05/08 11:10:29;;;;;;;12.02;2.28;;;;;;;;;;6015821;23;20519;-78
2022/05/08 11:13:00;;;;;;;9.77;2.40;;;;;;;;;;6016072;23;20008;-78
2022/05/08 11:15:42;;;;;;;13.55;2.42;;;;;;;;;;6038509;23;20055;-78
2022/05/08 11:18:09;;;;;;;17.67;2.60;;;;;;;;;;6041610;23;20054;-78
2022/05/08 11:20:44;;;;;;;9.75;1.88;;;;;;;;;;6015816;23;20022;-78
2022/05/08 11:23:14;;;;;;;17.08;2.92;;;;;;;;;;6024803;23;20019;-81
2022/05/08 11:25:52;;;;;;;9.10;1.83;;;;;;;;;;6043657;23;20130;-81
2022/05/08 11:28:28;;;;;;;14.32;2.10;;;;;;;;;;6027761;23;20011;-81
2022/05/08 11:31:15;;;;;;;9.13;2.58;;;;;;;;;;6026102;23;19999;-80
2022/05/08 11:36:38;;;;;;;11.30;2.78;;;;;;;;;;6055880;23;20027;-83
2022/05/08 11:39:21;;;;;;;13.83;2.13;;;;;;;;;;6031896;23;20018;-82
2022/05/08 11:41:51;;;;;;;5.93;1.80;;;;;;;;;;6033242;23;20004;-82
2022/05/08 11:44:21;;;;;;;15.82;2.60;;;;;;;;;;6033067;23;20007;-84
2022/05/08 11:46:57;;;;;;;10.00;1.70;;;;;;;;;;6033582;23;20007;-84
2022/05/08 11:49:24;;;;;;;13.13;2.25;;;;;;;;;;6034723;23;20078;-83
2022/05/08 11:52:22;;;;;;;14.23;2.35;;;;;;;;;;6024648;23;20060;-79
2022/05/08 11:55:02;;;;;;;15.10;2.40;;;;;;;;;;6023222;23;20030;-81
2022/05/08 11:57:43;;;;;;;9.25;1.60;;;;;;;;;;6025052;23;20007;-81
2022/05/08 12:00:16;;;;;;;9.13;1.70;;;;;;;;;;6031326;23;20007;-80
2022/05/08 12:02:42;;;;;;;10.25;1.60;;;;;;;;;;6018598;23;20007;-79
2022/05/08 12:05:18;;;;;;;9.45;2.38;;;;;;;;;;6017109;23;20090;-79
2022/05/08 12:07:48;;;;;;;8.75;1.88;;;;;;;;;;6017566;23;20018;-78
2022/05/08 12:10:14;;;;;;;12.38;2.13;;;;;;;;;;6015806;23;20023;-79
2022/05/08 12:12:41;;;;;;;11.23;2.33;;;;;;;;;;6040426;23;20522;-79
2022/05/08 12:15:13;;;;;;;11.13;2.38;;;;;;;;;;6017828;23;20059;-81
2022/05/08 12:17:42;;;;;;;11.75;2.50;;;;;;;;;;6017779;23;20466;-79
2022/05/08 12:20:12;;;;;;;14.32;2.63;;;;;;;;;;6014577;23;20094;-79
2022/05/08 12:22:41;;;;;;;9.82;2.38;;;;;;;;;;6016402;23;20131;-78
2022/05/08 12:25:08;;;;;;;17.52;2.45;;;;;;;;;;6021191;23;20007;-81
2022/05/08 12:27:34;;;;;;;12.25;2.75;;;;;;;;;;6030040;23;20398;-81
2022/05/08 12:30:03;;;;;;;9.77;2.00;;;;;;;;;;6054072;23;19999;-79
2022/05/08 12:32:29;;;;;;;12.68;2.42;;;;;;;;;;6016839;23;20007;-78
2022/05/08 12:34:57;;;;;;;9.57;1.83;;;;;;;;;;6041708;23;20003;-79
2022/05/08 12:37:26;;;;;;;11.23;2.50;;;;;;;;;;6017352;23;20350;-78
2022/05/08 12:39:53;;;;;;;10.38;2.00;;;;;;;;;;6017435;23;20007;-78
2022/05/08 12:42:19;;;;;;;13.15;2.28;;;;;;;;;;6040039;23;20225;-78
2022/05/08 12:44:45;;;;;;;13.00;3.08;;;;;;;;;;6044489;23;20034;-79
2022/05/08 12:47:11;;;;;;;9.27;2.28;;;;;;;;;;6019497;23;20384;-79
2022/05/08 12:49:38;;;;;;;9.50;2.05;;;;;;;;;;6023604;23;20023;-80
2022/05/08 12:52:14;;;;;;;8.98;2.22;;;;;;;;;;6028660;23;20418;-80
2022/05/08 12:54:40;;;;;;;11.60;2.50;;;;;;;;;;6018376;23;20043;-77
2022/05/08 12:57:08;;;;;;;9.35;2.75;;;;;;;;;;6024612;23;20012;-80
2022/05/08 13:02:40;;;;;;;9.73;2.60;;;;;;;;;;6025198;23;20043;-79
2022/05/08 13:05:06;;;;;;;11.27;2.88;;;;;;;;;;6047499;23;19999;-79
2022/05/08 13:07:32;;;;;;;8.10;1.70;;;;;;;;;;6023150;23;20006;-79
2022/05/08 13:09:58;;;;;;;10.85;1.85;;;;;;;;;;6021916;23;20029;-81
2022/05/08 13:12:24;;;;;;;6.97;2.13;;;;;;;;;;6026246;23;20009;-79
2022/05/08 13:14:50;;;;;;;8.73;2.60;;;;;;;;;;6026191;23;20007;-80
2022/05/08 13:17:19;;;;;;;16.63;2.42;;;;;;;;;;6053025;23;20343;-80
2022/05/08 13:19:45;;;;;;;9.48;2.22;;;;;;;;;;6021735;23;20102;-80
2022/05/08 13:22:11;;;;;;;14.05;3.85;;;;;;;;;;6023886;23;20007;-80
2022/05/08 13:24:38;;;;;;;9.88;1.80;;;;;;;;;;6043267;23;20316;-79
2022/05/08 13:27:12;;;;;;;6.18;1.95;;;;;;;;;;6020102;23;20018;-80
2022/05/08 13:29:40;;;;;;;6.82;2.10;;;;;;;;;;6045598;23;20010;-79
2022/05/08 13:32:12;;;;;;;9.05;2.33;;;;;;;;;;6046615;23;20022;-79
2022/05/08 13:35:02;;;;;;;5.72;1.73;;;;;;;;;;6031553;23;20478;-82
2022/05/08 13:37:30;;;;;;;7.95;1.83;;;;;;;;;;6022022;23;20034;-80
2022/05/08 13:39:59;;;;;;;6.28;2.60;;;;;;;;;;6021235;23;20633;-78
2022/05/08 13:42:37;;;;;;;7.63;2.05;;;;;;;;;;6023474;23;20003;-80
2022/05/08 13:45:12;;;;;;;8.15;1.92;;;;;;;;;;6027274;23;20039;-79
2022/05/08 13:47:44;;;;;;;7.25;1.92;;;;;;;;;;6053596;23;20011;-81
2022/05/08 13:50:11;;;;;;;10.90;1.90;;;;;;;;;;6031222;23;20011;-81
2022/05/08 13:53:07;;;;;;;9.15;2.15;;;;;;;;;;6030068;23;20003;-81
2022/05/08 13:55:39;;;;;;;5.75;1.73;;;;;;;;;;6028084;23;20040;-81
2022/05/08 13:58:11;;;;;;;4.93;1.50;;;;;;;;;;6027473;23;20034;-80
2022/05/08 14:00:45;;;;;;;9.25;1.95;;;;;;;;;;6028427;23;20085;-81
2022/05/08 14:03:16;;;;;;;10.68;2.03;;;;;;;;;;6030916;23;20016;-80
2022/05/08 14:05:42;;;;;;;10.80;2.40;;;;;;;;;;6030701;23;20014;-80
2022/05/08 14:08:11;;;;;;;6.78;1.95;;;;;;;;;;6030596;23;20023;-82
2022/05/08 21:47:45;;;;;;;15.15;3.97;;;;;;;;;;6020863;23;19946;-84
2022/05/08 21:50:12;;;;;;;15.38;3.75;;;;;;;;;;6017402;23;20011;-80
2022/05/08 21:52:39;;;;;;;10.90;4.43;;;;;;;;;;6044609;23;20029;-82
2022/05/08 21:55:05;;;;;;;17.40;4.05;;;;;;;;;;6018271;23;20015;-81
2022/05/08 21:57:31;;;;;;;10.70;3.88;;;;;;;;;;6017185;23;20014;-81
2022/05/08 21:59:57;;;;;;;11.07;4.35;;;;;;;;;;6017259;23;20068;-81
2022/05/08 22:02:23;;;;;;;12.60;3.85;;;;;;;;;;6019721;23;20351;-82
2022/05/08 22:04:49;;;;;;;11.98;3.80;;;;;;;;;;6019703;23;20047;-80
2022/05/08 22:07:15;;;;;;;10.32;3.72;;;;;;;;;;6020299;23;20435;-80
2022/05/08 22:09:41;;;;;;;10.05;3.55;;;;;;;;;;6018060;23;20015;-82
2022/05/08 22:12:08;;;;;;;9.77;3.45;;;;;;;;;;6018420;23;20461;-83
2022/05/08 22:14:34;;;;;;;11.98;3.30;;;;;;;;;;6018911;23;20014;-82
2022/05/08 22:17:01;;;;;;;9.90;3.30;;;;;;;;;;6017934;23;20003;-82
2022/05/08 22:19:28;;;;;;;12.35;3.38;;;;;;;;;;6019017;23;20011;-83
2022/05/08 22:21:59;;;;;;;13.10;3.53;;;;;;;;;;6043902;23;20019;-82
2022/05/08 22:24:25;;;;;;;7.90;3.58;;;;;;;;;;6044042;23;19999;-82
2022/05/08 22:26:51;;;;;;;10.45;3.05;;;;;;;;;;6019348;23;20007;-83
2022/05/08 22:29:17;;;;;;;12.40;3.38;;;;;;;;;;6018721;23;20007;-83
2022/05/08 22:31:43;;;;;;;11.73;3.88;;;;;;;;;;6019320;23;20018;-82
2022/05/08 22:34:09;;;;;;;8.73;2.85;;;;;;;;;;6019107;23;20011;-82
2022/05/08 22:36:35;;;;;;;10.80;3.42;;;;;;;;;;6019099;23;20027;-82
2022/05/08 22:39:01;;;;;;;8.25;3.17;;;;;;;;;;6045272;23;20046;-82
2022/05/08 22:41:28;;;;;;;8.43;2.65;;;;;;;;;;6019628;23;20010;-83
2022/05/08 22:43:54;;;;;;;7.43;2.92;;;;;;;;;;6024203;23;20003;-82
2022/05/08 22:46:20;;;;;;;8.43;3.28;;;;;;;;;;6028190;23;20008;-84
2022/05/08 22:48:46;;;;;;;8.68;3.25;;;;;;;;;;6046775;23;20069;-82
2022/05/08 22:51:12;;;;;;;11.57;3.20;;;;;;;;;;6046446;23;20026;-82
2022/05/08 22:53:38;;;;;;;6.72;2.63;;;;;;;;;;6021263;23;20007;-80
2022/05/08 22:56:04;;;;;;;6.13;2.40;;;;;;;;;;6020477;23;20463;-82
2022/05/08 22:58:31;;;;;;;16.42;2.97;;;;;;;;;;6019999;23;20011;-82
2022/05/08 23:00:57;;;;;;;6.80;2.67;;;;;;;;;;6020221;23;20350;-82
2022/05/08 23:03:23;;;;;;;11.00;2.72;;;;;;;;;;6020206;23;20093;-82
2022/05/08 23:05:49;;;;;;;13.77;2.92;;;;;;;;;;6020002;23;20067;-82
2022/05/08 23:08:15;;;;;;;8.30;2.40;;;;;;;;;;6019187;23;20000;-82
2022/05/08 23:10:41;;;;;;;8.77;3.00;;;;;;;;;;6021601;23;20004;-81
2022/05/08 23:13:07;;;;;;;11.38;3.15;;;;;;;;;;6022501;23;20007;-83
2022/05/08 23:15:34;;;;;;;6.85;2.47;;;;;;;;;;6020642;23;20090;-82
2022/05/08 23:18:02;;;;;;;8.77;2.65;;;;;;;;;;6019778;23;20014;-82
2022/05/08 23:20:33;;;;;;;8.63;2.88;;;;;;;;;;6018009;23;20089;-82
2022/05/08 23:22:59;;;;;;;8.27;2.45;;;;;;;;;;6019191;23;20016;-81
2022/05/08 23:25:32;;;;;;;6.20;2.60;;;;;;;;;;6019289;23;20010;-81
2022/05/08 23:27:59;;;;;;;8.45;2.50;;;;;;;;;;6045134;23;19999;-82
2022/05/08 23:30:26;;;;;;;9.75;2.75;;;;;;;;;;6044403;23;20003;-82
2022/05/08 23:32:52;;;;;;;5.53;2.35;;;;;;;;;;6020907;23;20056;-81
2022/05/08 23:35:18;;;;;;;7.32;2.65;;;;;;;;;;6019724;23;20384;-81
2022/05/08 23:37:44;;;;;;;6.28;2.40;;;;;;;;;;6020687;23;20015;-81
2022/05/08 23:40:11;;;;;;;5.03;2.38;;;;;;;;;;6019884;23;20014;-81
2022/05/08 23:42:37;;;;;;;6.10;2.30;;;;;;;;;;6044903;23;20056;-81
2022/05/08 23:45:04;;;;;;;5.90;2.33;;;;;;;;;;6019883;23;20020;-81
2022/05/08 23:47:30;;;;;;;8.65;3.20;;;;;;;;;;6045017;23;20018;-82
2022/05/08 23:49:56;;;;;;;9.85;2.47;;;;;;;;;;6019502;23;20042;-81
2022/05/08 23:52:24;;;;;;;7.45;2.35;;;;;;;;;;6019029;23;20394;-82
2022/05/08 23:54:50;;;;;;;5.35;2.33;;;;;;;;;;6019235;23;20032;-82
2022/05/08 23:57:16;;;;;;;7.10;2.20;;;;;;;;;;6018355;23;20007;-81
2022/05/08 23:59:42;;;;;;;6.70;2.55;;;;;;;;;;6018738;23;20086;-81
